クライストチャーチ の空港の天気 - METARとTAF

クライストチャーチ国際空港 ( NZCH / CHC ) - ニュージーランド クライストチャーチ
飛行場実況気象(Metar)
観測時間07/17 21:00 NZST (07/17 09:00 UTC)
風向・風速東 2m/s
視程10km以上
天気現象
なし
気温7℃
湿度87%
気圧1010hPa
METARNZCH 170900Z AUTO 09003KT 9999 NCD 07/05 Q1010 NOSIG
過去の天気等 Google飛行場航空写真 Wunderground天気予報

過去48時間のMETAR

飛行場予報(TAF)
発表時間: 7/17 17:07 NZST (7/17 05:07 UTC)
予報対象時間: 17日18時 NZST ~ 18日18時 NZST
風向・風速西 3m/s
視程10km以上
なし
TAF NZCH 170507Z 1706/1806 26005KT CAVOK